sensor_id;sensor_type;location;lat;lon;timestamp;temperature;humidity
10143;DHT22;5112;54.088;13.446;2023-04-01T00:05:13;5.90;99.90
10143;DHT22;5112;54.088;13.446;2023-04-01T00:15:18;5.80;99.90
10143;DHT22;5112;54.088;13.446;2023-04-01T00:25:19;5.80;99.90
10143;DHT22;5112;54.088;13.446;2023-04-01T00:35:22;5.60;99.90
10143;DHT22;5112;54.088;13.446;2023-04-01T00:45:31;5.60;99.90
10143;DHT22;5112;54.088;13.446;2023-04-01T00:55:39;5.40;99.90
10143;DHT22;5112;54.088;13.446;2023-04-01T01:16:26;5.30;99.90
10143;DHT22;5112;54.088;13.446;2023-04-01T01:26:42;5.40;99.90
10143;DHT22;5112;54.088;13.446;2023-04-01T01:36:53;5.40;99.90
10143;DHT22;5112;54.088;13.446;2023-04-01T01:46:56;5.30;99.90
10143;DHT22;5112;54.088;13.446;2023-04-01T01:57:04;5.30;99.90
10143;DHT22;5112;54.088;13.446;2023-04-01T02:07:10;5.30;99.90
10143;DHT22;5112;54.088;13.446;2023-04-01T02:17:17;5.20;99.90
10143;DHT22;5112;54.088;13.446;2023-04-01T02:27:19;5.20;99.90
10143;DHT22;5112;54.088;13.446;2023-04-01T02:37:23;5.20;99.90
10143;DHT22;5112;54.088;13.446;2023-04-01T02:47:24;5.20;99.90
10143;DHT22;5112;54.088;13.446;2023-04-01T02:57:27;5.20;99.90
10143;DHT22;5112;54.088;13.446;2023-04-01T03:07:29;5.20;99.90
10143;DHT22;5112;54.088;13.446;2023-04-01T03:17:32;5.20;99.90
10143;DHT22;5112;54.088;13.446;2023-04-01T03:27:34;5.20;99.90
10143;DHT22;5112;54.088;13.446;2023-04-01T03:37:37;5.20;99.90
10143;DHT22;5112;54.088;13.446;2023-04-01T03:47:39;5.20;99.90
10143;DHT22;5112;54.088;13.446;2023-04-01T03:57:42;5.20;99.90
10143;DHT22;5112;54.088;13.446;2023-04-01T04:07:44;5.20;99.90
10143;DHT22;5112;54.088;13.446;2023-04-01T04:17:47;5.10;99.90
10143;DHT22;5112;54.088;13.446;2023-04-01T04:27:49;5.30;99.90
10143;DHT22;5112;54.088;13.446;2023-04-01T04:37:52;5.10;99.90
10143;DHT22;5112;54.088;13.446;2023-04-01T04:47:54;5.30;99.90
10143;DHT22;5112;54.088;13.446;2023-04-01T04:57:57;5.20;99.90
10143;DHT22;5112;54.088;13.446;2023-04-01T05:07:58;5.10;99.90
10143;DHT22;5112;54.088;13.446;2023-04-01T05:18:01;5.20;99.90
10143;DHT22;5112;54.088;13.446;2023-04-01T05:28:03;5.20;99.90
10143;DHT22;5112;54.088;13.446;2023-04-01T05:38:07;5.20;99.90
10143;DHT22;5112;54.088;13.446;2023-04-01T05:48:08;5.10;99.90
10143;DHT22;5112;54.088;13.446;2023-04-01T05:58:11;5.00;99.90
10143;DHT22;5112;54.088;13.446;2023-04-01T06:08:15;5.00;99.90
10143;DHT22;5112;54.088;13.446;2023-04-01T06:18:43;5.00;99.90
10143;DHT22;5112;54.088;13.446;2023-04-01T06:29:02;5.10;99.90
10143;DHT22;5112;54.088;13.446;2023-04-01T06:39:56;5.10;99.90
10143;DHT22;5112;54.088;13.446;2023-04-01T06:50:07;5.10;99.90
10143;DHT22;5112;54.088;13.446;2023-04-01T07:00:22;5.10;99.90
10143;DHT22;5112;54.088;13.446;2023-04-01T07:10:42;5.10;99.90
10143;DHT22;5112;54.088;13.446;2023-04-01T07:20:46;4.90;99.90
10143;DHT22;5112;54.088;13.446;2023-04-01T07:30:57;4.90;99.90
10143;DHT22;5112;54.088;13.446;2023-04-01T07:41:10;5.00;99.90
10143;DHT22;5112;54.088;13.446;2023-04-01T07:51:19;4.90;99.90
10143;DHT22;5112;54.088;13.446;2023-04-01T08:01:28;4.90;99.90
10143;DHT22;5112;54.088;13.446;2023-04-01T08:11:41;4.90;99.90
10143;DHT22;5112;54.088;13.446;2023-04-01T08:21:50;4.90;99.90
10143;DHT22;5112;54.088;13.446;2023-04-01T08:31:56;4.80;99.90
10143;DHT22;5112;54.088;13.446;2023-04-01T08:42:31;4.90;99.90
10143;DHT22;5112;54.088;13.446;2023-04-01T08:52:41;5.00;99.90
10143;DHT22;5112;54.088;13.446;2023-04-01T09:03:07;4.90;99.90
10143;DHT22;5112;54.088;13.446;2023-04-01T09:13:25;5.00;99.90
10143;DHT22;5112;54.088;13.446;2023-04-01T09:34:32;4.90;99.90
10143;DHT22;5112;54.088;13.446;2023-04-01T09:44:37;4.90;99.90
10143;DHT22;5112;54.088;13.446;2023-04-01T09:55:00;5.00;99.90
10143;DHT22;5112;54.088;13.446;2023-04-01T10:05:28;5.00;99.90
10143;DHT22;5112;54.088;13.446;2023-04-01T10:16:04;5.10;99.90
10143;DHT22;5112;54.088;13.446;2023-04-01T10:26:31;5.10;99.90
10143;DHT22;5112;54.088;13.446;2023-04-01T10:36:52;5.20;99.90
10143;DHT22;5112;54.088;13.446;2023-04-01T10:47:14;5.20;99.90
10143;DHT22;5112;54.088;13.446;2023-04-01T10:57:37;5.20;99.90
10143;DHT22;5112;54.088;13.446;2023-04-01T11:07:59;5.10;99.90
10143;DHT22;5112;54.088;13.446;2023-04-01T11:18:45;5.00;99.90
10143;DHT22;5112;54.088;13.446;2023-04-01T11:39:24;5.10;99.90
10143;DHT22;5112;54.088;13.446;2023-04-01T11:49:47;5.00;99.90
10143;DHT22;5112;54.088;13.446;2023-04-01T12:00:14;5.00;99.90
10143;DHT22;5112;54.088;13.446;2023-04-01T12:10:20;5.00;99.90
10143;DHT22;5112;54.088;13.446;2023-04-01T12:20:30;5.10;99.90
10143;DHT22;5112;54.088;13.446;2023-04-01T12:30:42;5.00;99.90
10143;DHT22;5112;54.088;13.446;2023-04-01T12:41:10;5.00;99.90
10143;DHT22;5112;54.088;13.446;2023-04-01T12:51:49;4.90;99.90
10143;DHT22;5112;54.088;13.446;2023-04-01T13:02:00;4.90;99.90
10143;DHT22;5112;54.088;13.446;2023-04-01T13:12:24;4.90;99.90
10143;DHT22;5112;54.088;13.446;2023-04-01T13:22:41;4.90;99.90
10143;DHT22;5112;54.088;13.446;2023-04-01T13:32:52;4.80;99.90
10143;DHT22;5112;54.088;13.446;2023-04-01T13:43:02;4.80;99.90
10143;DHT22;5112;54.088;13.446;2023-04-01T14:03:54;4.70;99.90
10143;DHT22;5112;54.088;13.446;2023-04-01T14:14:04;4.80;99.90
10143;DHT22;5112;54.088;13.446;2023-04-01T14:24:23;4.90;99.90
10143;DHT22;5112;54.088;13.446;2023-04-01T14:34:52;4.90;99.90
10143;DHT22;5112;54.088;13.446;2023-04-01T14:45:19;4.80;99.90
10143;DHT22;5112;54.088;13.446;2023-04-01T14:55:31;4.70;99.90
10143;DHT22;5112;54.088;13.446;2023-04-01T15:05:42;4.80;99.90
10143;DHT22;5112;54.088;13.446;2023-04-01T15:15:58;4.70;99.90
10143;DHT22;5112;54.088;13.446;2023-04-01T15:26:17;4.60;99.90
10143;DHT22;5112;54.088;13.446;2023-04-01T15:36:33;4.80;99.90
10143;DHT22;5112;54.088;13.446;2023-04-01T15:46:43;4.60;99.90
10143;DHT22;5112;54.088;13.446;2023-04-01T15:56:53;4.50;99.90
10143;DHT22;5112;54.088;13.446;2023-04-01T16:07:10;4.50;99.90
10143;DHT22;5112;54.088;13.446;2023-04-01T16:17:29;4.50;99.90
10143;DHT22;5112;54.088;13.446;2023-04-01T16:27:40;4.40;99.90
10143;DHT22;5112;54.088;13.446;2023-04-01T16:37:47;4.40;99.90
10143;DHT22;5112;54.088;13.446;2023-04-01T16:47:54;4.40;99.90
10143;DHT22;5112;54.088;13.446;2023-04-01T16:57:57;4.30;99.90
10143;DHT22;5112;54.088;13.446;2023-04-01T17:08:08;4.30;99.90
10143;DHT22;5112;54.088;13.446;2023-04-01T17:18:16;4.40;99.90
10143;DHT22;5112;54.088;13.446;2023-04-01T17:28:36;4.30;99.90
10143;DHT22;5112;54.088;13.446;2023-04-01T17:39:00;4.20;99.90
10143;DHT22;5112;54.088;13.446;2023-04-01T17:49:16;4.20;99.90
10143;DHT22;5112;54.088;13.446;2023-04-01T17:59:25;4.00;99.90
10143;DHT22;5112;54.088;13.446;2023-04-01T18:09:36;3.90;99.90
10143;DHT22;5112;54.088;13.446;2023-04-01T18:19:49;4.00;99.90
10143;DHT22;5112;54.088;13.446;2023-04-01T18:30:01;4.00;99.90
10143;DHT22;5112;54.088;13.446;2023-04-01T18:40:13;4.00;99.90
10143;DHT22;5112;54.088;13.446;2023-04-01T18:50:23;4.10;99.90
10143;DHT22;5112;54.088;13.446;2023-04-01T19:00:33;4.00;99.90
10143;DHT22;5112;54.088;13.446;2023-04-01T19:10:43;3.90;99.90
10143;DHT22;5112;54.088;13.446;2023-04-01T19:20:52;4.00;99.90
10143;DHT22;5112;54.088;13.446;2023-04-01T19:31:02;4.00;99.90
10143;DHT22;5112;54.088;13.446;2023-04-01T19:51:47;4.00;99.90
10143;DHT22;5112;54.088;13.446;2023-04-01T20:01:56;4.00;99.90
10143;DHT22;5112;54.088;13.446;2023-04-01T20:12:05;4.20;99.90
10143;DHT22;5112;54.088;13.446;2023-04-01T20:22:23;4.30;99.90
10143;DHT22;5112;54.088;13.446;2023-04-01T20:32:37;4.30;99.90
10143;DHT22;5112;54.088;13.446;2023-04-01T20:43:02;4.30;99.90
10143;DHT22;5112;54.088;13.446;2023-04-01T20:53:15;4.10;99.90
10143;DHT22;5112;54.088;13.446;2023-04-01T21:03:26;4.10;99.90
10143;DHT22;5112;54.088;13.446;2023-04-01T21:13:50;4.10;99.90
10143;DHT22;5112;54.088;13.446;2023-04-01T21:24:23;4.20;99.90
10143;DHT22;5112;54.088;13.446;2023-04-01T21:34:43;4.10;99.90
10143;DHT22;5112;54.088;13.446;2023-04-01T21:45:03;4.10;99.90
10143;DHT22;5112;54.088;13.446;2023-04-01T21:55:36;4.10;99.90
10143;DHT22;5112;54.088;13.446;2023-04-01T22:05:48;4.10;99.90
10143;DHT22;5112;54.088;13.446;2023-04-01T22:16:00;4.20;99.90
10143;DHT22;5112;54.088;13.446;2023-04-01T22:26:12;4.10;99.90
10143;DHT22;5112;54.088;13.446;2023-04-01T22:36:23;4.10;99.90
10143;DHT22;5112;54.088;13.446;2023-04-01T22:46:44;4.20;99.90
10143;DHT22;5112;54.088;13.446;2023-04-01T22:56:53;4.30;99.90
10143;DHT22;5112;54.088;13.446;2023-04-01T23:06:59;4.30;99.90
10143;DHT22;5112;54.088;13.446;2023-04-01T23:17:16;4.10;99.90
10143;DHT22;5112;54.088;13.446;2023-04-01T23:27:21;4.00;99.90
10143;DHT22;5112;54.088;13.446;2023-04-01T23:37:27;4.00;99.90
10143;DHT22;5112;54.088;13.446;2023-04-01T23:47:31;3.90;99.90
10143;DHT22;5112;54.088;13.446;2023-04-01T23:57:36;3.70;99.90
